Time;durP1;ratioP1;P1;durP2;ratioP2;P2;SDS_P1;SDS_P2;PMS_P1;PMS_P2;Temp;Humidity;BMP_temperature;BMP_pressure;BME280_temperature;BME280_humidity;BME280_pressure;Samples;Min_cycle;Max_cycle;Signal;HPM_P1;HPM_P2
2023/03/16 00:01:41;;;;;;;1.00;0.40;;;1.40;99.90;;;;;;6338769;22;20011;-88
2023/03/16 00:04:07;;;;;;;0.90;0.68;;;1.60;99.90;;;;;;6338775;22;20310;-87
2023/03/16 00:06:35;;;;;;;1.23;0.50;;;2.00;99.90;;;;;;6338026;22;20021;-87
2023/03/16 00:09:01;;;;;;;2.28;0.50;;;0.40;99.90;;;;;;6310532;22;20018;-88
2023/03/16 00:11:27;;;;;;;1.85;0.38;;;0.90;99.90;;;;;;6338143;22;20015;-88
2023/03/16 00:13:53;;;;;;;2.50;0.40;;;1.90;99.90;;;;;;6310466;22;20368;-88
2023/03/16 00:16:19;;;;;;;2.00;0.57;;;0.60;99.90;;;;;;6310696;22;20022;-88
2023/03/16 00:18:45;;;;;;;2.75;0.38;;;2.50;99.90;;;;;;6338025;22;20104;-88
2023/03/16 00:21:13;;;;;;;4.03;0.50;;;1.40;99.90;;;;;;6340099;22;20018;-89
2023/03/16 00:23:41;;;;;;;1.02;0.40;;;1.80;99.90;;;;;;6312599;22;20046;-87
2023/03/16 00:26:08;;;;;;;0.90;0.40;;;1.70;99.90;;;;;;6339701;22;20093;-88
2023/03/16 00:28:35;;;;;;;0.65;0.40;;;1.20;99.90;;;;;;6340491;22;20072;-87
2023/03/16 00:31:06;;;;;;;0.35;0.28;;;1.20;99.90;;;;;;6339758;22;20018;-87
2023/03/16 00:33:35;;;;;;;0.68;0.40;;;2.30;99.90;;;;;;6340240;22;20015;-88
2023/03/16 00:36:03;;;;;;;2.55;0.60;;;1.50;99.90;;;;;;6312285;22;20022;-88
2023/03/16 00:38:34;;;;;;;0.55;0.40;;;1.10;99.90;;;;;;6340279;22;20010;-87
2023/03/16 00:41:05;;;;;;;1.20;0.60;;;2.10;99.90;;;;;;6339787;22;20054;-87
2023/03/16 00:43:39;;;;;;;0.55;0.40;;;1.40;99.90;;;;;;6286608;22;20019;-88
2023/03/16 00:46:07;;;;;;;0.80;0.40;;;1.40;99.90;;;;;;6311703;22;20022;-87
2023/03/16 00:48:34;;;;;;;0.80;0.50;;;1.30;99.90;;;;;;6312750;22;20050;-88
2023/03/16 00:51:05;;;;;;;2.15;0.47;;;0.60;99.90;;;;;;6286025;22;20075;-87
2023/03/16 00:53:35;;;;;;;1.20;0.40;;;1.40;99.90;;;;;;6339481;22;20084;-87
2023/03/16 00:56:03;;;;;;;1.45;0.40;;;1.50;99.90;;;;;;6339594;22;20010;-87
2023/03/16 00:58:34;;;;;;;0.70;0.40;;;1.50;99.90;;;;;;6287068;22;20014;-87
2023/03/16 01:01:09;;;;;;;1.05;0.50;;;2.50;99.90;;;;;;6311872;22;20425;-87
2023/03/16 01:03:35;;;;;;;2.40;0.88;;;1.30;99.90;;;;;;6340094;22;20322;-89
2023/03/16 01:06:06;;;;;;;2.17;0.50;;;1.80;99.90;;;;;;6339487;22;20018;-88
2023/03/16 01:08:34;;;;;;;0.50;0.50;;;0.90;99.90;;;;;;6339394;22;20057;-88
2023/03/16 01:11:10;;;;;;;1.00;0.50;;;1.70;99.90;;;;;;6339436;22;20027;-89
2023/03/16 01:13:37;;;;;;;0.95;0.50;;;1.70;99.90;;;;;;6339842;22;20029;-88
2023/03/16 01:16:05;;;;;;;2.05;0.52;;;1.60;99.90;;;;;;6285666;22;20064;-88
2023/03/16 01:18:34;;;;;;;1.00;0.60;;;1.70;99.90;;;;;;6339150;22;20015;-88
2023/03/16 01:21:10;;;;;;;1.77;0.60;;;2.00;99.90;;;;;;6312325;22;20022;-88
2023/03/16 01:23:36;;;;;;;2.00;0.50;;;2.10;99.90;;;;;;6286251;22;20015;-88
2023/03/16 01:26:02;;;;;;;0.65;0.50;;;2.30;99.90;;;;;;6286580;22;20015;-89
2023/03/16 01:28:34;;;;;;;4.03;0.85;;;1.40;99.90;;;;;;6311532;22;20071;-87
2023/03/16 01:31:04;;;;;;;1.65;0.60;;;2.00;99.90;;;;;;6311685;22;20014;-89
2023/03/16 01:33:30;;;;;;;1.65;0.70;;;1.90;99.90;;;;;;6311666;22;20089;-89
2023/03/16 01:35:56;;;;;;;0.88;0.47;;;1.80;99.90;;;;;;6311639;22;20103;-88
2023/03/16 01:38:25;;;;;;;3.15;1.05;;;3.20;99.90;;;;;;6311409;22;20010;-88
2023/03/16 01:40:55;;;;;;;0.98;0.70;;;2.80;99.90;;;;;;6285840;22;20025;-89
2023/03/16 01:43:24;;;;;;;3.35;0.75;;;2.50;99.90;;;;;;6311560;22;20518;-88
2023/03/16 01:46:07;;;;;;;2.22;0.80;;;2.90;99.90;;;;;;6286207;22;20094;-88
2023/03/16 01:49:11;;;;;;;2.83;0.80;;;2.10;99.90;;;;;;6311268;22;20106;-87
2023/03/16 01:51:50;;;;;;;2.85;0.60;;;1.90;99.90;;;;;;6158284;23;20051;-87
2023/03/16 01:54:44;;;;;;;1.70;0.77;;;2.20;99.90;;;;;;6158535;23;20013;-88
2023/03/16 01:57:18;;;;;;;1.08;0.50;;;2.20;99.90;;;;;;6158542;23;20032;-88
2023/03/16 02:00:09;;;;;;;3.70;1.30;;;2.20;99.90;;;;;;6158291;23;20420;-87
2023/03/16 02:02:38;;;;;;;0.80;0.50;;;1.60;99.90;;;;;;6183264;23;20087;-87
2023/03/16 02:05:13;;;;;;;1.20;0.70;;;2.20;99.90;;;;;;6158069;23;20071;-87
2023/03/16 02:07:51;;;;;;;1.75;0.80;;;3.50;99.90;;;;;;6176465;23;20021;-88
2023/03/16 02:10:19;;;;;;;1.70;0.70;;;2.20;99.90;;;;;;6187846;23;20024;-87
2023/03/16 02:12:45;;;;;;;1.38;1.00;;;2.20;99.90;;;;;;6188170;23;20020;-87
2023/03/16 02:15:13;;;;;;;0.98;0.73;;;2.40;99.90;;;;;;6213275;23;20048;-87
2023/03/16 02:17:42;;;;;;;1.23;0.57;;;2.60;99.90;;;;;;6187972;23;20028;-87
2023/03/16 02:20:41;;;;;;;2.13;0.90;;;2.30;99.90;;;;;;6213320;23;20110;-87
2023/03/16 02:23:17;;;;;;;1.00;0.65;;;2.30;99.90;;;;;;6188252;23;20020;-87
2023/03/16 02:26:04;;;;;;;2.13;0.68;;;2.60;99.90;;;;;;6188187;23;20023;-88
2023/03/16 02:28:55;;;;;;;2.58;0.80;;;1.90;99.90;;;;;;6301500;22;20018;-88
2023/03/16 02:31:21;;;;;;;2.10;0.82;;;3.70;99.90;;;;;;6311179;22;20349;-89
2023/03/16 02:33:49;;;;;;;1.85;0.85;;;2.40;99.90;;;;;;6338762;22;20014;-87
2023/03/16 02:36:17;;;;;;;1.90;0.85;;;2.00;99.90;;;;;;6339478;22;20010;-89
2023/03/16 02:38:45;;;;;;;0.82;0.70;;;3.10;99.90;;;;;;6338804;22;20023;-87
2023/03/16 02:41:16;;;;;;;2.45;0.65;;;2.40;99.90;;;;;;6337308;22;20077;-88
2023/03/16 02:43:53;;;;;;;2.67;0.75;;;3.30;99.90;;;;;;6337055;22;20023;-88
2023/03/16 02:46:25;;;;;;;1.33;0.77;;;2.40;99.90;;;;;;6339061;22;20015;-88
2023/03/16 02:49:20;;;;;;;1.85;0.98;;;3.60;99.90;;;;;;6336867;22;20480;-88
2023/03/16 02:51:46;;;;;;;1.23;0.63;;;2.40;99.90;;;;;;6338578;22;20072;-88
2023/03/16 02:54:12;;;;;;;2.95;1.10;;;2.40;99.90;;;;;;6339019;22;20015;-88
2023/03/16 02:56:38;;;;;;;2.67;0.90;;;2.40;99.90;;;;;;6310670;22;20341;-88
2023/03/16 02:59:09;;;;;;;1.35;0.70;;;2.50;99.90;;;;;;6338316;22;20021;-88
2023/03/16 03:01:35;;;;;;;1.80;0.90;;;2.40;99.90;;;;;;6339088;22;20022;-89
2023/03/16 03:04:03;;;;;;;1.77;0.93;;;3.60;99.90;;;;;;6338904;22;20080;-89
2023/03/16 03:06:39;;;;;;;;;;;;;;;;;;;;;
2023/03/16 03:09:05;;;;;;;2.33;0.80;;;3.70;99.90;;;;;;6301570;22;20058;-89
2023/03/16 03:11:31;;;;;;;2.70;0.70;;;2.50;99.90;;;;;;6311396;22;20025;-88
2023/03/16 03:14:02;;;;;;;2.40;1.05;;;3.10;99.90;;;;;;6338057;22;20086;-88
2023/03/16 03:16:30;;;;;;;3.42;1.50;;;1.70;99.90;;;;;;6284927;22;20011;-88
2023/03/16 03:18:59;;;;;;;2.85;0.93;;;2.60;99.90;;;;;;6310863;22;20079;-88
2023/03/16 03:21:33;;;;;;;1.23;0.80;;;2.60;99.90;;;;;;6310749;22;20102;-89
2023/03/16 03:24:09;;;;;;;2.35;1.00;;;2.70;99.90;;;;;;6338481;22;20015;-89
2023/03/16 03:26:38;;;;;;;2.50;1.00;;;2.60;99.90;;;;;;6310756;22;20049;-88
2023/03/16 03:29:04;;;;;;;1.33;0.90;;;2.20;99.90;;;;;;6310571;22;20015;-89
2023/03/16 03:31:32;;;;;;;1.85;1.10;;;2.90;99.90;;;;;;6310586;22;20052;-88
2023/03/16 03:34:05;;;;;;;2.55;1.10;;;4.00;99.90;;;;;;6310728;22;20093;-88
2023/03/16 03:36:32;;;;;;;2.65;1.15;;;2.70;99.90;;;;;;6310615;22;20017;-88
2023/03/16 03:38:57;;;;;;;3.63;1.30;;;2.70;99.90;;;;;;6284922;22;20345;-88
2023/03/16 03:41:28;;;;;;;2.03;1.10;;;2.80;99.90;;;;;;6310390;22;20075;-89
2023/03/16 03:43:57;;;;;;;3.25;1.30;;;2.80;99.90;;;;;;6310890;22;20076;-89
2023/03/16 03:46:23;;;;;;;2.05;1.20;;;2.80;99.90;;;;;;6310330;22;20022;-88
2023/03/16 03:48:48;;;;;;;3.55;1.13;;;2.90;99.90;;;;;;6310801;22;20022;-88
2023/03/16 03:51:17;;;;;;;2.60;1.13;;;3.20;99.90;;;;;;6311084;22;20345;-88
2023/03/16 03:53:55;;;;;;;;;;;;;;;;;;;;;
2023/03/16 03:56:21;;;;;;;1.52;1.00;;;3.60;99.90;;;;;;6308262;22;20015;-89
2023/03/16 03:58:52;;;;;;;2.50;1.13;;;3.50;99.90;;;;;;6312342;22;20022;-89
2023/03/16 04:01:35;;;;;;;;;;;;;;;;;;;;;
2023/03/16 04:04:05;;;;;;;1.75;1.05;;;2.90;99.90;;;;;;6235560;22;20330;-88
2023/03/16 04:06:30;;;;;;;2.00;1.10;;;3.80;99.90;;;;;;6340242;22;20021;-88
2023/03/16 04:08:59;;;;;;;3.28;1.02;;;3.60;99.90;;;;;;6340204;22;20098;-88
2023/03/16 04:15:15;;;;;;;3.25;1.55;;;3.00;99.90;;;;;;6340114;22;20018;-89
2023/03/16 04:17:41;;;;;;;2.60;1.10;;;3.10;99.90;;;;;;6312243;22;20022;-88
2023/03/16 04:20:13;;;;;;;4.05;1.25;;;3.10;99.90;;;;;;6312539;22;20068;-88
2023/03/16 04:22:42;;;;;;;3.28;1.35;;;3.10;99.90;;;;;;6312806;22;20075;-89
2023/03/16 04:25:09;;;;;;;2.50;1.05;;;3.40;99.90;;;;;;6312713;22;20019;-88
2023/03/16 04:27:40;;;;;;;2.75;1.13;;;3.20;99.90;;;;;;6312863;22;20019;-88
2023/03/16 04:30:14;;;;;;;2.42;1.05;;;3.10;99.90;;;;;;6286930;22;20441;-88
2023/03/16 04:32:52;;;;;;;;;;;;;;;;;;;;;
2023/03/16 04:35:18;;;;;;;1.98;1.05;;;3.20;99.90;;;;;;6333463;22;20017;-87
2023/03/16 04:37:46;;;;;;;2.58;1.48;;;3.10;99.90;;;;;;6311822;22;20348;-87
2023/03/16 04:40:15;;;;;;;4.32;1.25;;;3.30;99.90;;;;;;6312110;22;20067;-88
2023/03/16 04:42:41;;;;;;;4.20;1.55;;;3.10;99.90;;;;;;6339589;22;20018;-87
2023/03/16 04:45:07;;;;;;;2.13;1.10;;;2.70;99.90;;;;;;6340190;22;20015;-87
2023/03/16 04:47:33;;;;;;;2.30;1.30;;;3.20;99.90;;;;;;6311479;22;20053;-88
2023/03/16 04:50:01;;;;;;;4.53;1.92;;;3.20;99.90;;;;;;6312187;22;20111;-87
2023/03/16 04:52:30;;;;;;;3.40;1.00;;;3.10;99.90;;;;;;6311877;22;20532;-87
2023/03/16 04:54:59;;;;;;;2.70;1.20;;;4.00;99.90;;;;;;6311572;22;20023;-87
2023/03/16 04:57:27;;;;;;;4.22;1.63;;;3.20;99.90;;;;;;6312304;22;20469;-88
2023/03/16 04:59:55;;;;;;;2.30;1.35;;;3.20;99.90;;;;;;6339914;22;20022;-88
2023/03/16 05:02:21;;;;;;;6.82;1.48;;;3.20;99.90;;;;;;6340366;22;20061;-88
2023/03/16 05:04:47;;;;;;;3.35;1.73;;;3.60;99.90;;;;;;6340095;22;20446;-87
2023/03/16 05:07:16;;;;;;;2.60;1.27;;;3.20;99.90;;;;;;6338806;22;20019;-88
2023/03/16 05:09:45;;;;;;;3.35;1.92;;;3.90;99.90;;;;;;6312312;22;20409;-88
2023/03/16 05:12:13;;;;;;;3.03;1.30;;;2.70;99.90;;;;;;6312354;22;20021;-87
2023/03/16 05:14:39;;;;;;;4.50;1.73;;;3.30;99.90;;;;;;6312024;22;20014;-88
2023/03/16 05:17:05;;;;;;;3.78;1.30;;;3.40;99.90;;;;;;6312495;22;20037;-88
2023/03/16 05:19:31;;;;;;;3.20;1.70;;;4.10;99.90;;;;;;6286459;22;20014;-88
2023/03/16 05:21:57;;;;;;;3.10;1.30;;;3.40;99.90;;;;;;6312444;22;20480;-87
2023/03/16 05:24:23;;;;;;;3.38;1.90;;;3.80;99.90;;;;;;6311969;22;20022;-88
2023/03/16 05:26:49;;;;;;;4.05;1.35;;;3.40;99.90;;;;;;6286092;22;20015;-88
2023/03/16 05:29:15;;;;;;;3.25;1.73;;;2.90;99.90;;;;;;6312134;22;20054;-88
2023/03/16 05:31:41;;;;;;;2.88;1.48;;;3.40;99.90;;;;;;6339542;22;20011;-89
2023/03/16 05:34:09;;;;;;;2.95;1.42;;;4.10;99.90;;;;;;6286409;22;20018;-88
2023/03/16 05:36:36;;;;;;;3.28;1.77;;;3.40;99.90;;;;;;6286017;22;20464;-89
2023/03/16 05:39:04;;;;;;;6.78;1.92;;;3.40;99.90;;;;;;6339329;22;20015;-88
2023/03/16 05:41:36;;;;;;;4.63;1.60;;;3.40;99.90;;;;;;6311350;22;20457;-88
2023/03/16 05:44:07;;;;;;;5.13;1.90;;;3.40;99.90;;;;;;6339260;22;20007;-88
2023/03/16 05:46:33;;;;;;;4.43;1.80;;;4.50;99.90;;;;;;6285797;22;20069;-90
2023/03/16 05:48:59;;;;;;;3.40;1.52;;;4.10;99.90;;;;;;6311317;22;20015;-89
2023/03/16 05:51:28;;;;;;;4.50;1.95;;;4.10;99.90;;;;;;6311151;22;20026;-89
2023/03/16 05:56:43;;;;;;;4.07;1.75;;;4.10;99.90;;;;;;6310860;22;20469;-89
2023/03/16 05:59:21;;;;;;;3.88;1.35;;;4.80;99.90;;;;;;6311956;22;20095;-89
2023/03/16 06:01:49;;;;;;;4.68;1.80;;;2.90;99.90;;;;;;6339459;22;20007;-88
2023/03/16 06:04:18;;;;;;;2.05;1.20;;;4.40;99.90;;;;;;6311598;22;20101;-89
2023/03/16 06:06:48;;;;;;;2.17;1.27;;;3.50;99.90;;;;;;6311185;22;20010;-88
2023/03/16 06:09:17;;;;;;;3.05;1.45;;;3.60;99.90;;;;;;6336433;22;20629;-88
2023/03/16 06:11:51;;;;;;;2.70;1.77;;;3.60;99.90;;;;;;6339554;22;20025;-88
2023/03/16 06:14:26;;;;;;;;;;;;;;;;;;;;;
2023/03/16 06:17:01;;;;;;;3.25;1.52;;;3.50;99.90;;;;;;6259072;22;20080;-89
2023/03/16 06:19:30;;;;;;;2.90;1.58;;;4.10;99.90;;;;;;6339264;22;20015;-88
2023/03/16 06:21:58;;;;;;;3.58;1.80;;;3.50;99.90;;;;;;6338940;22;20017;-87
2023/03/16 06:24:26;;;;;;;3.55;1.50;;;3.60;99.90;;;;;;6337634;22;20079;-88
2023/03/16 06:26:52;;;;;;;2.95;1.60;;;4.50;99.90;;;;;;6336089;22;20093;-88
2023/03/16 06:29:18;;;;;;;4.53;1.50;;;3.60;99.90;;;;;;6339092;22;20088;-90
2023/03/16 06:31:46;;;;;;;3.92;2.10;;;3.10;99.90;;;;;;6336831;22;20018;-88
2023/03/16 06:34:18;;;;;;;5.07;1.90;;;4.00;99.90;;;;;;6337502;22;20054;-88
2023/03/16 06:36:44;;;;;;;4.05;1.52;;;4.80;99.90;;;;;;6338643;22;20405;-88
2023/03/16 06:39:10;;;;;;;3.53;1.38;;;3.60;99.90;;;;;;6336774;22;20019;-88
2023/03/16 06:41:36;;;;;;;6.22;1.70;;;4.80;99.90;;;;;;6337181;22;20011;-88
2023/03/16 06:44:04;;;;;;;2.75;1.50;;;3.70;99.90;;;;;;6337327;22;20014;-87
2023/03/16 06:46:31;;;;;;;4.03;1.70;;;3.70;99.90;;;;;;6336984;22;20026;-88
2023/03/16 06:48:59;;;;;;;5.80;1.52;;;3.20;99.90;;;;;;6338869;22;20010;-87
2023/03/16 06:51:27;;;;;;;3.88;1.77;;;4.90;99.90;;;;;;6339198;22;20022;-87
2023/03/16 06:53:53;;;;;;;3.25;1.63;;;3.40;99.90;;;;;;6337051;22;20076;-87
2023/03/16 06:56:19;;;;;;;3.78;1.63;;;4.30;99.90;;;;;;6337584;22;20018;-89
2023/03/16 06:58:45;;;;;;;2.95;1.67;;;4.90;99.90;;;;;;6337376;22;20021;-86
2023/03/16 07:01:13;;;;;;;4.30;1.63;;;4.40;99.90;;;;;;6339730;22;20015;-86
2023/03/16 07:03:42;;;;;;;2.95;1.75;;;3.80;99.90;;;;;;6339789;22;20011;-88
2023/03/16 07:06:08;;;;;;;2.90;1.50;;;3.90;99.90;;;;;;6340190;22;20015;-87
2023/03/16 07:08:41;;;;;;;3.47;1.67;;;3.90;99.90;;;;;;6341427;22;20014;-89
2023/03/16 07:11:07;;;;;;;4.32;1.90;;;4.50;99.90;;;;;;6339970;22;20068;-87
2023/03/16 07:13:34;;;;;;;3.08;1.88;;;4.60;99.90;;;;;;6311252;22;20014;-88
2023/03/16 07:16:00;;;;;;;3.55;1.75;;;4.00;99.90;;;;;;6339706;22;20494;-88
2023/03/16 07:18:29;;;;;;;3.80;1.75;;;4.00;99.90;;;;;;6337017;22;20071;-87
2023/03/16 07:20:54;;;;;;;7.22;2.05;;;5.20;99.90;;;;;;6337141;22;20019;-87
2023/03/16 07:23:20;;;;;;;4.93;1.98;;;4.70;99.90;;;;;;6337233;22;20049;-86
2023/03/16 07:25:49;;;;;;;2.97;1.52;;;4.00;99.90;;;;;;6337995;22;20015;-86
2023/03/16 07:28:19;;;;;;;2.88;1.70;;;4.20;99.90;;;;;;6310985;22;20346;-89
2023/03/16 07:30:46;;;;;;;2.50;1.48;;;4.10;99.90;;;;;;6338989;22;20022;-85
2023/03/16 07:33:19;;;;;;;7.65;2.38;;;4.70;99.90;;;;;;6338774;22;20086;-89
2023/03/16 07:35:45;;;;;;;4.93;2.08;;;4.20;99.90;;;;;;6338456;22;20010;-85
2023/03/16 07:38:11;;;;;;;3.17;1.50;;;4.20;99.90;;;;;;6337086;22;20318;-86
2023/03/16 07:40:39;;;;;;;5.63;1.48;;;4.30;99.90;;;;;;6337132;22;20335;-86
2023/03/16 07:43:08;;;;;;;2.42;1.63;;;4.30;99.90;;;;;;6337183;22;20018;-89
2023/03/16 07:45:41;;;;;;;4.00;1.52;;;5.50;99.90;;;;;;6339027;22;20059;-89
2023/03/16 07:48:37;;;;;;;3.03;1.63;;;4.40;99.90;;;;;;6337565;22;20463;-88
2023/03/16 07:51:18;;;;;;;2.25;1.42;;;4.40;99.90;;;;;;6336246;22;20361;-90
2023/03/16 07:54:09;;;;;;;3.35;1.80;;;5.10;99.90;;;;;;6339127;22;20054;-91
2023/03/16 07:56:38;;;;;;;2.95;1.58;;;4.50;99.90;;;;;;6336743;22;20019;-87
2023/03/16 07:59:11;;;;;;;5.25;1.98;;;4.50;99.90;;;;;;6337370;22;20063;-87
2023/03/16 08:01:36;;;;;;;4.72;1.92;;;4.50;99.90;;;;;;6336972;22;20099;-86
2023/03/16 08:04:03;;;;;;;2.38;1.40;;;4.70;99.90;;;;;;6312297;22;20014;-86
2023/03/16 08:06:51;;;;;;;7.20;1.75;;;4.70;99.90;;;;;;6337840;22;20387;-90
2023/03/16 08:10:04;;;;;;;7.63;1.90;;;5.00;99.90;;;;;;6336730;22;20438;-89
2023/03/16 08:12:30;;;;;;;4.03;1.77;;;4.80;99.90;;;;;;6184272;23;20103;-89
2023/03/16 08:15:03;;;;;;;2.88;1.73;;;6.10;99.90;;;;;;6188626;23;20052;-87
2023/03/16 08:18:06;;;;;;;2.10;1.17;;;5.00;99.90;;;;;;6163325;23;20016;-88
2023/03/16 08:20:40;;;;;;;4.20;1.88;;;4.50;99.90;;;;;;6188155;23;20091;-91
2023/03/16 08:23:15;;;;;;;2.90;1.50;;;4.30;99.90;;;;;;6163049;23;20025;-88
2023/03/16 11:19:24;;;;;;;5.38;2.25;;;6.10;99.90;;;;;;5930776;24;20048;-85
2023/03/16 11:22:45;;;;;;;4.47;2.10;;;6.10;99.90;;;;;;5930632;24;20341;-86
2023/03/16 11:25:52;;;;;;;2.90;1.73;;;6.10;99.90;;;;;;5930272;24;20020;-90
2023/03/16 11:32:54;;;;;;;;;;;;;;;;;;;;;
2023/03/16 12:18:39;;;;;;;4.35;1.92;;;6.80;99.90;;;;;;5936919;24;20021;-87
2023/03/16 12:21:55;;;;;;;3.22;1.92;;;6.90;99.90;;;;;;5937611;23;20012;-87
2023/03/16 12:24:54;;;;;;;4.07;1.60;;;7.00;99.90;;;;;;5829537;24;20419;-90
2023/03/16 12:27:33;;;;;;;3.47;1.73;;;7.20;99.90;;;;;;5851351;24;20010;-84
2023/03/16 12:30:05;;;;;;;4.38;1.80;;;7.20;99.90;;;;;;5850821;24;20007;-85
2023/03/16 12:40:10;;;;;;;;;;;7.80;99.90;;;;;;5049819;22;19921;-89
2023/03/16 13:11:48;;;;;;;;;;;;;;;;;;;;;
2023/03/16 13:14:54;;;;;;;2.85;1.73;;;8.40;99.90;;;;;;4756891;30;20056;-88
2023/03/16 13:44:38;;;;;;;4.75;1.77;;;8.60;99.90;;;;;;4755544;30;20036;-90
2023/03/16 14:36:57;;;;;;;2.72;1.20;;;9.10;99.90;;;;;;5983919;22;7859455;-86
2023/03/16 14:39:46;;;;;;;2.75;1.55;;;9.00;99.90;;;;;;6285504;22;20161;-86
2023/03/16 14:43:10;;;;;;;3.28;1.30;;;9.00;99.90;;;;;;6258234;22;20019;-86
2023/03/16 14:45:57;;;;;;;;;;;;;;;;;;;;;
2023/03/16 14:48:27;;;;;;;2.78;1.38;;;9.00;99.90;;;;;;6101974;23;20020;-86
2023/03/16 14:51:24;;;;;;;1.80;1.10;;;9.00;99.90;;;;;;6107232;23;20027;-87
2023/03/16 14:54:35;;;;;;;1.92;1.50;;;9.10;99.90;;;;;;6131682;23;20018;-86
2023/03/16 14:57:44;;;;;;;2.45;1.35;;;8.80;99.90;;;;;;6049523;23;20650;-86
2023/03/16 15:04:21;;;;;;;;;;;;;;;;;;;;;
2023/03/16 15:06:56;;;;;;;2.00;1.23;;;9.80;99.90;;;;;;5934406;24;20429;-86
2023/03/16 15:10:05;;;;;;;4.28;1.38;;;9.30;99.90;;;;;;5960295;23;20030;-86
2023/03/16 15:17:04;;;;;;;2.47;1.15;;;9.50;99.90;;;;;;5960622;24;20049;-87
2023/03/16 15:20:15;;;;;;;2.45;1.30;;;8.80;99.90;;;;;;5842110;24;20149;-89
2023/03/16 15:22:46;;;;;;;2.75;1.35;;;9.80;99.90;;;;;;5861001;24;20050;-87
2023/03/16 15:25:36;;;;;;;3.15;1.17;;;9.50;99.90;;;;;;5882449;24;20029;-86
2023/03/16 15:31:42;;;;;;;3.67;1.33;;;9.50;99.90;;;;;;5932682;24;20088;-87
2023/03/16 15:34:08;;;;;;;1.80;1.08;;;9.40;99.90;;;;;;5932321;24;20020;-84
2023/03/16 15:36:38;;;;;;;1.80;1.00;;;9.00;99.90;;;;;;5903932;24;20148;-86
2023/03/16 15:39:08;;;;;;;1.83;0.90;;;9.30;99.90;;;;;;5926089;24;20043;-84
2023/03/16 15:41:34;;;;;;;1.92;1.08;;;9.30;99.90;;;;;;6010172;23;20063;-84
2023/03/16 15:44:01;;;;;;;1.63;1.08;;;9.30;99.90;;;;;;5985907;23;20055;-84
2023/03/16 15:46:30;;;;;;;2.42;1.05;;;9.30;99.90;;;;;;6010051;23;20020;-86
2023/03/16 15:48:58;;;;;;;2.70;1.15;;;9.10;99.90;;;;;;6009188;23;20483;-85
2023/03/16 15:51:29;;;;;;;2.08;1.02;;;9.30;99.90;;;;;;6009706;23;20020;-85
2023/03/16 15:53:58;;;;;;;3.22;1.02;;;10.10;99.90;;;;;;5985486;23;20026;-85
2023/03/16 15:56:38;;;;;;;1.92;0.80;;;9.30;99.90;;;;;;6136083;22;20039;-85
2023/03/16 15:59:08;;;;;;;1.55;0.88;;;9.20;99.90;;;;;;6277835;22;20089;-84
2023/03/16 16:01:47;;;;;;;2.28;0.93;;;9.10;99.90;;;;;;6226731;22;20073;-83
2023/03/16 16:04:24;;;;;;;2.50;1.08;;;9.20;99.90;;;;;;6250297;22;20524;-86
2023/03/16 16:06:56;;;;;;;2.40;0.90;;;9.20;99.90;;;;;;6277275;22;20043;-87
2023/03/16 16:09:37;;;;;;;1.63;0.90;;;9.10;99.90;;;;;;6250282;22;20073;-84
2023/03/16 16:12:03;;;;;;;1.40;0.90;;;9.10;99.90;;;;;;6250259;22;20020;-83
2023/03/16 16:14:29;;;;;;;3.10;0.77;;;9.00;99.90;;;;;;6276510;22;20027;-82
2023/03/16 16:16:55;;;;;;;2.38;0.98;;;9.10;99.90;;;;;;6276350;22;20016;-86
2023/03/16 16:19:24;;;;;;;1.95;0.95;;;9.10;99.90;;;;;;6250693;22;20327;-83
2023/03/16 16:22:04;;;;;;;1.92;1.00;;;9.20;99.90;;;;;;6249781;22;20125;-86
2023/03/16 16:24:42;;;;;;;5.15;1.40;;;8.90;99.90;;;;;;6277787;22;20077;-87
2023/03/16 16:27:11;;;;;;;1.48;1.00;;;9.40;99.90;;;;;;6250379;22;20018;-87
2023/03/16 16:29:46;;;;;;;3.08;1.27;;;9.20;99.90;;;;;;6277845;22;20024;-88
2023/03/16 16:32:44;;;;;;;1.35;1.00;;;9.20;99.90;;;;;;6249933;22;20433;-86
2023/03/16 16:35:22;;;;;;;3.25;0.90;;;9.00;99.90;;;;;;6273226;22;20023;-87
2023/03/16 16:37:56;;;;;;;3.58;1.85;;;9.10;99.90;;;;;;6249851;22;20469;-87
2023/03/16 16:40:46;;;;;;;2.30;1.00;;;9.20;99.90;;;;;;6276134;22;20019;-88
2023/03/16 16:43:23;;;;;;;2.42;1.10;;;9.10;99.90;;;;;;6224631;22;20090;-87
2023/03/16 16:45:56;;;;;;;4.40;1.17;;;9.00;99.90;;;;;;6277443;22;20012;-88
2023/03/16 16:48:42;;;;;;;;;;;;;;;;;;;;;
2023/03/16 16:51:22;;;;;;;3.03;1.20;;;9.00;99.90;;;;;;6272282;22;20016;-87
2023/03/16 16:54:00;;;;;;;3.38;1.30;;;8.90;99.90;;;;;;6248936;22;20385;-86
2023/03/16 16:56:46;;;;;;;1.80;1.00;;;8.70;99.90;;;;;;6249576;22;20024;-86
2023/03/16 17:03:41;;;;;;;2.67;1.08;;;8.80;99.90;;;;;;6276700;22;20109;-85
2023/03/16 17:06:17;;;;;;;2.58;1.20;;;8.80;99.90;;;;;;6098921;23;20461;-87
2023/03/16 17:08:49;;;;;;;2.88;1.00;;;8.60;99.90;;;;;;6121660;23;20104;-86
2023/03/16 17:11:30;;;;;;;2.15;1.15;;;8.70;99.90;;;;;;6123725;23;20049;-86
2023/03/16 17:14:05;;;;;;;4.85;1.23;;;8.70;99.90;;;;;;6123694;23;20014;-86
2023/03/16 17:16:34;;;;;;;3.15;1.15;;;8.70;99.90;;;;;;6099442;23;20477;-85
2023/03/16 17:19:12;;;;;;;3.28;1.30;;;8.60;99.90;;;;;;6099537;23;20014;-87
2023/03/16 17:21:40;;;;;;;2.03;1.10;;;8.60;99.90;;;;;;6099318;23;20437;-86
2023/03/16 17:24:09;;;;;;;4.05;1.00;;;9.00;99.90;;;;;;6123767;23;20385;-86
2023/03/16 17:26:46;;;;;;;1.77;0.95;;;8.40;99.90;;;;;;6099264;23;20053;-85
2023/03/16 17:29:23;;;;;;;2.33;0.93;;;8.30;99.90;;;;;;6123497;23;20024;-86
2023/03/16 17:31:52;;;;;;;1.63;0.75;;;8.30;99.90;;;;;;6123965;23;20140;-86
2023/03/16 17:34:37;;;;;;;2.65;1.05;;;8.90;99.90;;;;;;6099223;23;20014;-86
2023/03/16 17:37:12;;;;;;;3.47;0.90;;;8.20;99.90;;;;;;6123793;23;20026;-86
2023/03/16 17:39:52;;;;;;;2.47;0.90;;;8.00;99.90;;;;;;6098959;23;20149;-86
2023/03/16 17:42:22;;;;;;;2.17;1.05;;;8.00;99.90;;;;;;6163501;22;20015;-86
2023/03/16 17:45:00;;;;;;;2.50;1.05;;;7.90;99.90;;;;;;6224463;22;20035;-88
2023/03/16 17:47:37;;;;;;;2.50;1.02;;;7.70;99.90;;;;;;6277178;22;20015;-85
2023/03/16 17:50:23;;;;;;;3.50;1.00;;;7.80;99.90;;;;;;6250105;22;20054;-86
2023/03/16 17:52:52;;;;;;;1.48;0.80;;;7.80;99.90;;;;;;6249455;22;20043;-86
2023/03/16 17:55:31;;;;;;;1.73;0.90;;;7.70;99.90;;;;;;6277254;22;20019;-86
2023/03/16 18:09:04;;;;;;;1.75;0.82;;;7.10;99.90;;;;;;6276530;22;20057;-87
2023/03/16 18:11:38;;;;;;;2.10;0.80;;;7.20;99.90;;;;;;6276565;22;20035;-86
2023/03/16 18:14:34;;;;;;;1.88;1.00;;;7.20;99.90;;;;;;6249298;22;20016;-87
2023/03/16 18:17:29;;;;;;;2.07;1.00;;;7.20;99.90;;;;;;6249993;22;20077;-86
2023/03/16 18:20:04;;;;;;;1.83;0.90;;;7.10;99.90;;;;;;6249092;22;20629;-89
2023/03/16 18:22:30;;;;;;;1.40;0.70;;;7.10;99.90;;;;;;6249286;22;20373;-88
2023/03/16 18:25:04;;;;;;;3.38;0.90;;;7.00;99.90;;;;;;6249799;22;20030;-87
2023/03/16 18:35:30;;;;;;;2.05;0.75;;;6.70;99.90;;;;;;6276423;22;20058;-88
2023/03/16 18:38:09;;;;;;;2.95;1.00;;;6.90;99.90;;;;;;6248733;22;20019;-88
2023/03/16 18:40:40;;;;;;;1.45;0.90;;;7.10;99.90;;;;;;6248791;22;20015;-87
2023/03/16 18:43:17;;;;;;;1.50;0.77;;;6.20;99.90;;;;;;6276038;22;20512;-89
2023/03/16 18:45:53;;;;;;;3.22;0.90;;;6.90;99.90;;;;;;6276164;22;20024;-87
2023/03/16 18:48:30;;;;;;;1.25;0.70;;;6.80;99.90;;;;;;6249017;22;20039;-86
2023/03/16 18:51:10;;;;;;;2.13;1.10;;;6.80;99.90;;;;;;6248374;22;20024;-88
2023/03/16 18:53:38;;;;;;;2.30;0.90;;;6.80;99.90;;;;;;6248436;22;20020;-86
2023/03/16 18:56:09;;;;;;;1.83;0.90;;;6.60;99.90;;;;;;6276048;22;20016;-87
2023/03/16 18:58:47;;;;;;;2.85;0.90;;;6.80;99.90;;;;;;6275800;22;20067;-88
2023/03/16 19:01:48;;;;;;;;;;;;;;;;;;;;;
2023/03/16 19:04:32;;;;;;;1.77;0.90;;;6.80;99.90;;;;;;6197433;22;20087;-87
2023/03/16 19:07:50;;;;;;;;;;;;;;;;;;;;;
2023/03/16 19:11:22;;;;;;;;;;;;;;;;;;;;;
2023/03/16 19:14:40;;;;;;;;;;;;;;;;;;;;;
2023/03/16 19:17:16;;;;;;;2.55;1.17;;;6.80;99.90;;;;;;6040271;23;20029;-88
2023/03/16 19:20:04;;;;;;;;;;;;;;;;;;;;;
2023/03/16 19:22:33;;;;;;;2.13;1.02;;;6.80;99.90;;;;;;6065096;23;20034;-88
2023/03/16 19:24:58;;;;;;;1.50;0.90;;;6.80;99.90;;;;;;6042561;23;20472;-88
2023/03/16 19:27:41;;;;;;;2.45;0.80;;;6.80;99.90;;;;;;6041850;23;20022;-88
2023/03/16 19:30:24;;;;;;;1.85;0.85;;;6.70;99.90;;;;;;6042638;23;20029;-88
2023/03/16 19:33:27;;;;;;;;;;;;;;;;;;;;;
2023/03/16 19:36:05;;;;;;;3.13;1.10;;;6.70;99.90;;;;;;6009073;23;20094;-87
2023/03/16 19:38:42;;;;;;;4.97;1.10;;;6.60;99.90;;;;;;5985657;23;20531;-87
2023/03/16 19:41:37;;;;;;;2.03;0.93;;;6.90;99.90;;;;;;6009286;23;20016;-87
2023/03/16 19:44:22;;;;;;;1.75;0.95;;;6.70;99.90;;;;;;6009390;23;20023;-86
2023/03/16 19:46:59;;;;;;;3.58;1.08;;;6.70;99.90;;;;;;6067196;23;20493;-87
2023/03/16 19:49:26;;;;;;;1.73;1.10;;;6.70;99.90;;;;;;6100137;23;20018;-86
2023/03/16 19:51:54;;;;;;;2.10;1.10;;;7.80;99.90;;;;;;6100085;23;20036;-87
2023/03/16 19:54:27;;;;;;;1.77;1.13;;;6.70;99.90;;;;;;6100029;23;20045;-86
2023/03/16 19:56:56;;;;;;;2.05;1.40;;;6.60;99.90;;;;;;6124638;23;20083;-84
2023/03/16 19:59:25;;;;;;;3.53;1.10;;;6.70;99.90;;;;;;6124057;23;20021;-85
2023/03/16 20:01:53;;;;;;;2.35;1.20;;;7.10;99.90;;;;;;6099630;23;20025;-86
2023/03/16 20:04:23;;;;;;;3.95;1.33;;;6.90;99.90;;;;;;6100020;23;20101;-84
2023/03/16 20:06:50;;;;;;;2.97;1.38;;;7.00;99.90;;;;;;6100040;23;20022;-85
2023/03/16 20:09:16;;;;;;;2.30;1.15;;;7.00;99.90;;;;;;6100124;23;20021;-86